Capitol Logistics 1153


EBLG
Liège Airport
Liege, BE
LFPG
Charles de Gaulle
Paris, FR

Activity Log

Date Flight Route Aircraft Duration
10/31/2019 CPX753 Not Available B738 0h 56m

Route Details

Aircraft Information
Primary: Boeing 737-800BCF
Backup: Not Available
Route Data
Distance: 149nm
Sched. Duration: 0h 35m
Avg. Duration: 0h 56m (+22m)
Times Flown: 1
Recm'd Route: Not Available
Planned Altitude: 15,000ft
Origin Wx: EBLG 061150Z 21013KT CAVOK 21/02 Q1020 NOSIG
Dest. Wx: LFPG 061200Z AUTO 23011KT 9999 FEW023/// SCT034/// BKN045/// ///TCU 15/05 Q1022 TEMPO 3000 RA BECMG BKN012
Notes:

Financial History
Total Freight: 46,992lbs
Average Load: 46,992lbs/flt
Fuel Used: 6,010lbs
Avg. Fuel Used: 6,010lbs/flt
Fuel Expense: $6,671
Avg. Fuel Expense: $6,671
Avg. Fuel Cost: $1.11/lbs
Total Gross Income: $93,984
Pilot Pay: $229
Total Expenses: $10,202
Total Revenue: $76,865
Average Revenue: $93,984.00